Time;durP1;ratioP1;P1;durP2;ratioP2;P2;SDS_P1;SDS_P2;PMS_P1;PMS_P2;Temp;Humidity;BMP_temperature;BMP_pressure;BME280_temperature;BME280_humidity;BME280_pressure;Samples;Min_cycle;Max_cycle;Signal;HPM_P1;HPM_P2
2023/12/05 00:00:23;;;;;;;11.77;8.30;;;-0.90;99.60;;;;;;5040585;28;20202;-85
2023/12/05 00:02:50;;;;;;;9.33;7.20;;;-0.70;99.70;;;;;;5046896;28;20198;-84
2023/12/05 00:05:17;;;;;;;10.43;7.70;;;-0.50;99.10;;;;;;5031288;28;20651;-84
2023/12/05 00:07:44;;;;;;;10.60;8.03;;;-0.30;98.40;;;;;;5047990;28;20198;-84
2023/12/05 00:10:11;;;;;;;10.87;7.97;;;-0.30;98.20;;;;;;5048693;28;20205;-84
2023/12/05 00:12:37;;;;;;;10.57;7.87;;;-0.40;97.90;;;;;;5049815;28;20222;-84
2023/12/05 00:15:07;;;;;;;10.87;8.13;;;-0.60;98.30;;;;;;5047702;28;20197;-84
2023/12/05 00:17:34;;;;;;;10.93;7.90;;;-0.60;99.10;;;;;;5048081;28;20198;-84
2023/12/05 00:20:00;;;;;;;10.20;8.13;;;-0.30;98.80;;;;;;5049840;28;20197;-85
2023/12/05 00:22:27;;;;;;;9.77;7.60;;;-0.30;98.30;;;;;;5050275;28;20244;-84
2023/12/05 00:24:54;;;;;;;11.00;7.57;;;-0.30;98.50;;;;;;5052896;28;20268;-84
2023/12/05 00:27:21;;;;;;;10.13;7.60;;;-0.40;98.60;;;;;;5050183;28;20198;-84
2023/12/05 00:29:48;;;;;;;12.13;8.07;;;-0.40;99.10;;;;;;5049430;28;20198;-84
2023/12/05 00:32:16;;;;;;;10.03;8.10;;;-0.20;99.10;;;;;;5049422;28;20221;-84
2023/12/05 00:34:44;;;;;;;11.73;7.73;;;-0.20;98.40;;;;;;5049344;28;20213;-84
2023/12/05 00:37:11;;;;;;;11.67;8.93;;;-0.30;98.80;;;;;;5044339;28;20190;-84
2023/12/05 00:39:38;;;;;;;12.20;7.90;;;-0.40;99.00;;;;;;5045413;28;20201;-86
2023/12/05 00:42:05;;;;;;;15.60;9.20;;;-0.40;99.10;;;;;;5048682;28;20230;-84
2023/12/05 00:44:32;;;;;;;10.27;7.83;;;-0.40;99.40;;;;;;5047113;28;20277;-84
2023/12/05 00:47:03;;;;;;;10.97;8.17;;;-0.40;99.80;;;;;;5049683;28;20281;-84
2023/12/05 00:49:31;;;;;;;12.23;8.17;;;-0.30;99.80;;;;;;5051148;28;20225;-85
2023/12/05 00:51:58;;;;;;;9.70;7.90;;;-0.30;99.80;;;;;;5049125;28;20222;-86
2023/12/05 00:54:25;;;;;;;9.97;7.67;;;-0.30;99.80;;;;;;5048495;28;20200;-85
2023/12/05 00:56:51;;;;;;;12.43;7.77;;;-0.30;99.90;;;;;;5047331;28;20541;-85
2023/12/05 00:59:18;;;;;;;10.80;7.50;;;-0.10;99.90;;;;;;5047630;28;20194;-85
2023/12/05 01:01:45;;;;;;;9.97;7.30;;;-0.20;99.70;;;;;;5048455;28;20662;-85
2023/12/05 01:04:12;;;;;;;13.03;7.40;;;0.00;99.90;;;;;;5050251;28;20189;-85
2023/12/05 01:06:40;;;;;;;9.73;7.20;;;0.10;99.80;;;;;;5049759;28;20202;-84
2023/12/05 01:09:09;;;;;;;10.73;7.50;;;0.20;99.80;;;;;;5050957;28;20202;-85
2023/12/05 01:11:36;;;;;;;8.80;7.13;;;0.30;99.20;;;;;;5050687;28;20205;-84
2023/12/05 01:14:03;;;;;;;9.23;7.00;;;0.40;99.30;;;;;;5049434;28;20312;-86
2023/12/05 01:16:30;;;;;;;9.20;6.80;;;0.50;99.30;;;;;;5051215;28;20286;-86
2023/12/05 01:18:56;;;;;;;9.57;7.10;;;0.60;99.30;;;;;;5050255;28;20677;-86
2023/12/05 01:21:23;;;;;;;9.03;6.97;;;0.70;99.30;;;;;;5052661;28;20217;-86
2023/12/05 01:23:51;;;;;;;9.83;6.63;;;0.70;99.30;;;;;;5052248;28;20198;-86
2023/12/05 01:26:18;;;;;;;8.27;6.87;;;0.80;99.40;;;;;;5052350;28;20205;-86
2023/12/05 01:28:45;;;;;;;9.10;7.10;;;1.00;99.40;;;;;;5060095;28;20197;-86
2023/12/05 01:31:12;;;;;;;9.53;6.83;;;1.00;99.40;;;;;;5056430;28;20213;-86
2023/12/05 01:33:38;;;;;;;8.33;6.57;;;1.00;99.40;;;;;;5060360;28;20225;-88
2023/12/05 01:36:10;;;;;;;9.30;6.93;;;0.90;99.40;;;;;;5050516;28;20194;-86
2023/12/05 01:38:36;;;;;;;9.87;7.73;;;0.80;99.40;;;;;;5047728;28;20194;-86
2023/12/05 01:41:05;;;;;;;9.30;6.87;;;0.60;99.50;;;;;;5051878;28;20355;-86
2023/12/05 01:43:32;;;;;;;9.77;7.13;;;0.50;99.90;;;;;;5054617;28;20276;-85
2023/12/05 01:45:59;;;;;;;8.80;6.87;;;0.50;99.90;;;;;;5052100;28;20198;-86
2023/12/05 01:48:27;;;;;;;9.30;6.87;;;0.70;99.90;;;;;;5049636;28;20201;-85
2023/12/05 01:50:54;;;;;;;9.80;6.53;;;0.80;99.90;;;;;;5052676;28;20739;-85
2023/12/05 01:53:23;;;;;;;8.60;6.60;;;0.90;99.90;;;;;;5052999;28;20228;-86
2023/12/05 01:55:51;;;;;;;8.43;6.60;;;0.90;99.90;;;;;;5052761;28;20194;-85
2023/12/05 01:58:20;;;;;;;10.03;7.17;;;1.00;99.90;;;;;;5049128;28;20209;-85
2023/12/05 02:00:47;;;;;;;12.20;7.13;;;0.90;99.90;;;;;;5047681;28;20714;-85
2023/12/05 02:03:14;;;;;;;9.63;7.20;;;0.80;99.90;;;;;;5044731;28;20568;-86
2023/12/05 02:05:41;;;;;;;10.63;7.57;;;0.70;99.90;;;;;;5050647;28;20198;-85
2023/12/05 02:08:09;;;;;;;12.57;7.30;;;0.60;99.90;;;;;;5051576;28;20277;-86
2023/12/05 02:10:36;;;;;;;11.23;7.10;;;0.60;99.90;;;;;;5050066;28;20194;-86
2023/12/05 02:13:03;;;;;;;9.87;7.47;;;0.80;99.90;;;;;;5029601;28;20237;-86
2023/12/05 02:15:32;;;;;;;11.03;7.17;;;0.80;99.90;;;;;;5051467;28;20213;-86
2023/12/05 02:18:05;;;;;;;10.73;7.13;;;0.80;99.90;;;;;;5051841;28;20202;-88
2023/12/05 02:20:40;;;;;;;11.27;7.60;;;0.80;99.90;;;;;;5052297;28;20205;-85
2023/12/05 02:23:36;;;;;;;11.57;7.70;;;0.70;99.90;;;;;;5052385;28;20282;-86
2023/12/05 02:26:10;;;;;;;9.13;7.43;;;0.60;99.90;;;;;;5049172;28;20716;-85
2023/12/05 02:28:39;;;;;;;8.03;6.80;;;0.50;99.90;;;;;;5049204;28;20194;-86
2023/12/05 02:31:06;;;;;;;10.33;7.00;;;0.60;99.90;;;;;;5051294;28;20562;-85
2023/12/05 02:33:35;;;;;;;8.43;6.60;;;0.80;99.90;;;;;;5044438;28;20275;-86
2023/12/05 02:36:11;;;;;;;10.20;7.37;;;0.70;99.90;;;;;;5049285;28;20281;-85
2023/12/05 02:38:45;;;;;;;9.57;6.67;;;0.80;99.90;;;;;;5047212;28;20209;-86
2023/12/05 02:41:18;;;;;;;10.87;7.27;;;0.90;99.90;;;;;;5049285;28;20190;-85
2023/12/05 02:43:50;;;;;;;9.73;6.60;;;1.10;99.90;;;;;;5050082;28;20221;-86
2023/12/05 02:46:18;;;;;;;7.53;6.53;;;1.10;99.90;;;;;;5053439;28;20281;-85
2023/12/05 02:48:45;;;;;;;9.80;7.20;;;0.90;99.90;;;;;;5050502;28;20198;-86
2023/12/05 02:51:12;;;;;;;9.60;6.93;;;0.80;99.90;;;;;;5052166;28;20194;-85
2023/12/05 02:53:39;;;;;;;13.47;7.63;;;0.80;99.90;;;;;;5047124;28;20577;-85
2023/12/05 02:56:07;;;;;;;9.30;6.83;;;0.70;99.90;;;;;;5047302;28;20199;-85
2023/12/05 02:58:34;;;;;;;8.37;6.70;;;0.70;99.90;;;;;;5049676;28;20198;-85
2023/12/05 03:01:03;;;;;;;8.97;6.40;;;0.80;99.90;;;;;;5049802;28;20205;-85
2023/12/05 03:03:30;;;;;;;9.17;6.90;;;1.00;99.90;;;;;;5051972;28;20289;-85
2023/12/05 03:05:57;;;;;;;8.60;6.67;;;1.10;99.90;;;;;;5047029;28;20205;-85
2023/12/05 03:08:24;;;;;;;8.90;6.47;;;1.10;99.90;;;;;;5047074;28;20710;-85
2023/12/05 03:10:50;;;;;;;8.80;6.43;;;1.00;99.90;;;;;;5044751;28;20566;-87
2023/12/05 03:13:17;;;;;;;10.83;6.83;;;0.80;99.90;;;;;;5049720;28;20224;-85
2023/12/05 03:15:44;;;;;;;7.10;5.83;;;0.80;99.90;;;;;;5045116;28;20194;-86
2023/12/05 03:18:13;;;;;;;7.27;5.73;;;0.80;99.90;;;;;;5054277;28;20206;-85
2023/12/05 03:20:40;;;;;;;9.57;6.33;;;0.80;99.90;;;;;;5051244;28;20190;-85
2023/12/05 03:23:07;;;;;;;7.33;5.80;;;1.10;99.90;;;;;;5048768;28;20224;-85
2023/12/05 03:25:34;;;;;;;7.80;6.23;;;1.20;99.90;;;;;;5050162;28;20210;-85
2023/12/05 03:28:00;;;;;;;8.17;6.23;;;1.10;99.90;;;;;;5034625;28;20565;-86
2023/12/05 03:30:27;;;;;;;8.83;5.77;;;1.20;99.90;;;;;;5049532;28;20201;-87
2023/12/05 03:32:57;;;;;;;8.87;6.07;;;1.30;99.90;;;;;;5039149;28;20275;-85
2023/12/05 03:35:25;;;;;;;7.83;5.80;;;1.30;99.90;;;;;;5051711;28;20222;-85
2023/12/05 03:37:52;;;;;;;8.97;5.73;;;1.30;99.90;;;;;;5049597;28;20667;-85
2023/12/05 03:40:20;;;;;;;6.57;5.37;;;1.30;99.90;;;;;;5049487;28;20195;-85
2023/12/05 03:42:46;;;;;;;8.23;5.80;;;1.10;99.90;;;;;;5049857;28;20205;-85
2023/12/05 03:45:13;;;;;;;9.90;6.23;;;1.00;99.90;;;;;;5051005;28;20194;-85
2023/12/05 03:47:40;;;;;;;11.07;5.60;;;0.90;99.90;;;;;;5049400;28;20719;-85
2023/12/05 03:50:08;;;;;;;7.43;6.20;;;0.80;99.90;;;;;;5048751;28;20204;-85
2023/12/05 03:52:36;;;;;;;9.83;6.20;;;0.90;99.90;;;;;;5042660;28;20201;-85
2023/12/05 03:55:03;;;;;;;7.20;5.73;;;0.80;99.90;;;;;;5046616;28;20209;-85
2023/12/05 03:57:30;;;;;;;8.30;5.50;;;0.90;99.90;;;;;;5049129;28;20225;-85
2023/12/05 03:59:56;;;;;;;9.20;5.67;;;1.10;99.90;;;;;;5049286;28;20232;-85
2023/12/05 04:02:23;;;;;;;6.20;5.20;;;1.20;99.90;;;;;;5045637;28;20198;-85
2023/12/05 04:04:50;;;;;;;7.23;5.80;;;1.20;99.90;;;;;;5051428;28;20197;-85
2023/12/05 04:07:17;;;;;;;7.50;6.00;;;1.20;99.90;;;;;;5053899;28;20198;-85
2023/12/05 04:09:46;;;;;;;7.73;5.63;;;1.20;99.90;;;;;;5048874;28;20654;-85
2023/12/05 04:12:13;;;;;;;12.83;5.57;;;1.10;99.90;;;;;;5046181;28;20259;-86
2023/12/05 04:14:40;;;;;;;8.10;5.67;;;1.10;99.90;;;;;;5049891;28;20220;-85
2023/12/05 04:17:07;;;;;;;7.57;5.47;;;1.00;99.90;;;;;;5047480;28;20205;-85
2023/12/05 04:19:33;;;;;;;6.03;5.03;;;1.00;99.90;;;;;;5050713;28;20204;-85
2023/12/05 04:22:00;;;;;;;9.57;5.37;;;0.80;99.90;;;;;;5028088;28;20268;-85
2023/12/05 04:24:27;;;;;;;6.27;5.20;;;0.80;99.90;;;;;;5044734;28;20201;-85
2023/12/05 04:26:55;;;;;;;7.30;5.13;;;0.90;99.90;;;;;;5045887;28;20207;-85
2023/12/05 04:29:22;;;;;;;7.47;4.90;;;0.80;99.90;;;;;;5050112;28;20678;-85
2023/12/05 04:31:50;;;;;;;8.23;4.93;;;0.90;99.90;;;;;;5050547;28;20198;-85
2023/12/05 04:34:16;;;;;;;7.97;5.17;;;1.10;99.90;;;;;;5043828;28;20230;-85
2023/12/05 04:36:43;;;;;;;7.43;4.70;;;1.10;99.90;;;;;;5046842;28;20199;-85
2023/12/05 04:39:10;;;;;;;6.10;4.63;;;1.10;99.90;;;;;;5051977;28;20194;-85
2023/12/05 04:41:37;;;;;;;10.73;5.17;;;1.00;99.90;;;;;;5050277;28;20213;-85
2023/12/05 04:44:05;;;;;;;7.13;4.90;;;0.90;99.90;;;;;;5053435;28;20205;-86
2023/12/05 04:46:32;;;;;;;5.50;4.20;;;0.90;99.90;;;;;;5053645;28;20229;-87
2023/12/05 04:48:58;;;;;;;6.67;4.90;;;0.80;99.90;;;;;;5054136;28;20193;-85
2023/12/05 04:51:25;;;;;;;7.63;4.80;;;0.70;99.90;;;;;;5029967;28;20260;-85
2023/12/05 04:53:52;;;;;;;7.37;4.93;;;0.60;99.90;;;;;;5049684;28;20214;-85
2023/12/05 04:56:19;;;;;;;6.60;4.87;;;0.60;99.90;;;;;;5053452;28;20202;-85
2023/12/05 04:58:46;;;;;;;6.97;4.40;;;0.50;99.90;;;;;;5049668;28;20198;-85
2023/12/05 05:01:14;;;;;;;7.87;4.30;;;0.50;99.90;;;;;;5049003;28;20198;-85
2023/12/05 05:03:41;;;;;;;5.50;4.17;;;0.50;99.90;;;;;;5048874;28;20198;-85
2023/12/05 05:06:08;;;;;;;5.63;4.47;;;0.50;99.90;;;;;;5044691;28;20202;-85
2023/12/05 05:08:35;;;;;;;7.47;4.20;;;0.50;99.90;;;;;;5050077;28;20201;-85
2023/12/05 05:11:02;;;;;;;6.07;3.70;;;0.50;99.90;;;;;;5048318;28;20213;-85
2023/12/05 05:13:29;;;;;;;9.60;4.10;;;0.40;99.90;;;;;;5030865;28;20210;-86
2023/12/05 05:15:55;;;;;;;5.53;3.10;;;0.40;99.90;;;;;;5046853;28;20202;-85
2023/12/05 05:18:24;;;;;;;7.30;3.23;;;0.40;99.90;;;;;;5053308;28;20574;-85
2023/12/05 05:20:51;;;;;;;4.70;3.70;;;0.30;99.90;;;;;;5052267;28;20574;-85
2023/12/05 05:23:18;;;;;;;5.83;3.50;;;0.20;99.90;;;;;;5052501;28;20218;-85
2023/12/05 05:25:44;;;;;;;6.77;3.30;;;0.40;99.90;;;;;;5052627;28;20198;-85
2023/12/05 05:28:11;;;;;;;6.07;3.30;;;0.40;99.90;;;;;;5028335;28;20198;-85
2023/12/05 05:30:38;;;;;;;6.03;2.97;;;0.30;99.90;;;;;;5052832;28;20206;-85
2023/12/05 05:33:05;;;;;;;8.33;2.80;;;0.10;99.90;;;;;;5053364;28;20197;-85
2023/12/05 05:35:33;;;;;;;7.83;3.00;;;0.10;99.90;;;;;;5052631;28;20565;-86
2023/12/05 05:38:00;;;;;;;5.10;2.80;;;0.00;99.90;;;;;;5052893;28;20194;-86
2023/12/05 05:40:27;;;;;;;5.57;2.43;;;-0.10;99.90;;;;;;5052486;28;20202;-86
2023/12/05 05:42:54;;;;;;;3.00;2.63;;;-0.10;99.90;;;;;;5047832;28;20289;-86
2023/12/05 05:45:21;;;;;;;8.03;2.90;;;-0.10;99.90;;;;;;5036024;28;20204;-86
2023/12/05 05:47:48;;;;;;;5.83;3.17;;;-0.10;99.90;;;;;;5052987;28;20212;-87
2023/12/05 05:50:15;;;;;;;4.63;2.77;;;-0.10;99.90;;;;;;5047921;28;20209;-87
2023/12/05 05:52:43;;;;;;;6.13;2.47;;;-0.20;99.90;;;;;;5050196;28;20202;-87
2023/12/05 05:55:10;;;;;;;4.10;2.97;;;-0.20;99.90;;;;;;5052123;28;20222;-87
2023/12/05 05:57:37;;;;;;;6.63;2.80;;;-0.20;99.90;;;;;;5046297;28;20232;-88
2023/12/05 06:00:05;;;;;;;7.23;2.93;;;-0.30;99.90;;;;;;5050431;28;20198;-87
2023/12/05 06:02:31;;;;;;;3.27;2.43;;;-0.20;99.90;;;;;;5047003;28;20468;-88
2023/12/05 06:04:58;;;;;;;5.97;2.70;;;-0.10;99.90;;;;;;5051140;28;20559;-88
2023/12/05 06:07:25;;;;;;;7.10;2.80;;;0.00;99.90;;;;;;5051024;28;20568;-87
2023/12/05 06:09:53;;;;;;;5.70;2.27;;;0.10;99.90;;;;;;5051878;28;20628;-85
2023/12/05 06:12:21;;;;;;;5.80;3.07;;;0.30;99.90;;;;;;5051900;28;20204;-88
2023/12/05 06:14:47;;;;;;;4.37;2.97;;;0.20;99.90;;;;;;5049813;28;20245;-85
2023/12/05 06:17:14;;;;;;;2.57;2.37;;;0.30;99.90;;;;;;5051196;28;20197;-89
2023/12/05 06:19:42;;;;;;;4.80;2.20;;;0.40;99.90;;;;;;5025651;28;20194;-88
2023/12/05 06:22:09;;;;;;;6.57;2.50;;;0.60;99.90;;;;;;5050991;28;20750;-89
2023/12/05 06:24:35;;;;;;;7.37;3.07;;;0.50;99.90;;;;;;5046566;28;20208;-88
2023/12/05 06:27:05;;;;;;;5.47;2.50;;;0.50;99.90;;;;;;5029709;28;20694;-86
2023/12/05 06:29:32;;;;;;;6.23;3.10;;;0.50;99.90;;;;;;5051421;28;20281;-87
2023/12/05 06:31:59;;;;;;;5.40;2.80;;;0.50;99.90;;;;;;5046742;28;20208;-86
2023/12/05 06:34:26;;;;;;;5.80;2.80;;;0.50;99.90;;;;;;5046305;28;20337;-86
2023/12/05 06:36:53;;;;;;;5.67;2.63;;;0.50;99.90;;;;;;5048528;28;20654;-88
2023/12/05 06:39:19;;;;;;;7.30;2.97;;;0.50;99.90;;;;;;5050471;28;20201;-91
2023/12/05 06:41:46;;;;;;;6.47;2.73;;;0.50;99.90;;;;;;5054883;28;20213;-88
2023/12/05 06:44:15;;;;;;;6.80;2.77;;;0.70;99.90;;;;;;5051003;28;20209;-88
2023/12/05 06:46:41;;;;;;;5.40;2.60;;;0.60;99.90;;;;;;5050414;28;20202;-88
2023/12/05 06:49:08;;;;;;;5.00;2.60;;;0.60;99.90;;;;;;5054241;28;20205;-90
2023/12/05 06:51:35;;;;;;;6.57;3.30;;;0.70;99.90;;;;;;5057898;28;20193;-87
2023/12/05 06:54:03;;;;;;;7.17;2.70;;;0.70;99.90;;;;;;5050214;28;20227;-89
2023/12/05 06:56:29;;;;;;;5.17;2.77;;;0.70;99.90;;;;;;5029959;28;20201;-89
2023/12/05 06:58:56;;;;;;;8.47;3.70;;;0.70;99.90;;;;;;5049205;28;20194;-86
2023/12/05 07:01:25;;;;;;;9.83;2.63;;;0.80;99.90;;;;;;5032080;28;20198;-88
2023/12/05 07:03:55;;;;;;;3.20;2.70;;;0.80;99.90;;;;;;5044741;28;20202;-88
2023/12/05 07:06:22;;;;;;;7.77;3.17;;;0.80;99.90;;;;;;5050390;28;20194;-88
2023/12/05 07:08:49;;;;;;;7.00;2.57;;;0.90;99.90;;;;;;5049556;28;20201;-87
2023/12/05 07:11:16;;;;;;;9.27;2.80;;;0.90;99.90;;;;;;5047758;28;20202;-90
2023/12/05 07:13:44;;;;;;;6.07;2.50;;;1.00;99.90;;;;;;5052202;28;20204;-86
2023/12/05 07:16:12;;;;;;;5.60;2.40;;;1.00;99.90;;;;;;5049872;28;20198;-88
2023/12/05 07:18:40;;;;;;;9.73;2.57;;;1.00;99.90;;;;;;5046445;28;20789;-86
2023/12/05 07:21:09;;;;;;;6.77;2.60;;;1.10;99.90;;;;;;5046540;28;20203;-88
2023/12/05 07:23:36;;;;;;;5.07;2.80;;;1.20;99.90;;;;;;5018843;28;20206;-92
2023/12/05 07:26:02;;;;;;;11.27;3.00;;;1.30;99.90;;;;;;5051963;28;20201;-85
2023/12/05 07:28:29;;;;;;;8.20;3.53;;;1.30;99.90;;;;;;5052778;28;20198;-86
2023/12/05 07:30:56;;;;;;;7.40;2.97;;;1.20;99.90;;;;;;5049893;28;20658;-86
2023/12/05 07:33:24;;;;;;;8.13;3.10;;;1.40;99.90;;;;;;5052619;28;20198;-86
2023/12/05 07:35:52;;;;;;;9.10;3.57;;;1.60;99.90;;;;;;5053522;28;20304;-87
2023/12/05 07:38:19;;;;;;;10.10;3.60;;;1.70;99.60;;;;;;5053633;28;20251;-86
2023/12/05 07:40:45;;;;;;;7.20;3.97;;;1.70;99.50;;;;;;5059517;28;20201;-87
2023/12/05 07:43:12;;;;;;;8.27;3.70;;;1.60;99.50;;;;;;5044387;28;20206;-85
2023/12/05 07:45:39;;;;;;;8.37;3.33;;;1.60;99.90;;;;;;5054073;28;20217;-88
2023/12/05 07:48:07;;;;;;;5.83;3.07;;;1.50;99.90;;;;;;5047409;28;20196;-90
2023/12/05 07:50:34;;;;;;;4.57;3.07;;;1.50;99.90;;;;;;5057181;28;20174;-88
2023/12/05 07:53:02;;;;;;;7.07;3.33;;;1.50;99.90;;;;;;5078659;28;20205;-86
2023/12/05 07:55:29;;;;;;;4.60;2.97;;;1.60;99.90;;;;;;5054162;28;20316;-86
2023/12/05 07:57:56;;;;;;;6.00;2.83;;;1.60;99.90;;;;;;5039529;28;20206;-87
2023/12/05 08:00:23;;;;;;;6.47;2.83;;;1.70;99.90;;;;;;5046430;28;20206;-90
2023/12/05 08:02:49;;;;;;;5.13;2.70;;;1.80;99.90;;;;;;5025267;28;20206;-88
2023/12/05 08:05:16;;;;;;;5.37;2.87;;;1.90;99.90;;;;;;5050892;28;20655;-90
2023/12/05 08:07:43;;;;;;;4.90;2.83;;;1.90;99.90;;;;;;5030100;28;20202;-89
2023/12/05 08:10:12;;;;;;;6.03;2.80;;;2.10;99.90;;;;;;5054228;28;20612;-90
2023/12/05 08:16:19;;;;;;;4.73;2.80;;;2.30;99.90;;;;;;5056463;28;20214;-90
2023/12/05 08:22:34;;;;;;;5.07;2.87;;;2.60;99.70;;;;;;5057657;28;20208;-89
2023/12/05 08:28:28;;;;;;;5.63;3.07;;;2.40;99.70;;;;;;5058002;28;20238;-90
2023/12/05 08:30:55;;;;;;;4.03;2.77;;;2.30;99.70;;;;;;5057346;28;20206;-89
2023/12/05 08:33:22;;;;;;;4.87;2.80;;;2.30;99.70;;;;;;5057428;28;20193;-90
2023/12/05 08:35:49;;;;;;;6.63;3.00;;;2.30;99.70;;;;;;5039630;28;20236;-90
2023/12/05 08:38:16;;;;;;;6.37;3.20;;;2.30;99.70;;;;;;5057613;28;20597;-89
2023/12/05 08:40:43;;;;;;;8.07;3.00;;;2.30;99.70;;;;;;5057350;28;20294;-90
2023/12/05 08:43:10;;;;;;;4.43;2.93;;;2.40;99.90;;;;;;5057283;28;20267;-90
2023/12/05 08:45:38;;;;;;;5.37;2.90;;;2.60;99.90;;;;;;5057797;28;20209;-89
2023/12/05 08:48:20;;;;;;;6.63;3.30;;;2.70;99.90;;;;;;5040237;28;20186;-89
2023/12/05 08:54:45;;;;;;;5.87;2.87;;;2.90;99.60;;;;;;5057652;28;20286;-91
2023/12/05 09:28:59;;;;;;;4.82;2.78;;;7.90;92.50;;;;;;5510703;22;20221;-90
2023/12/05 09:38:19;;;;;;;4.53;2.50;;;7.80;77.50;;;;;;5076742;28;20188;-90
2023/12/05 09:51:04;;;;;;;4.85;2.70;;;5.90;89.50;;;;;;5034083;28;20247;-89
2023/12/05 09:57:14;;;;;;;5.30;2.90;;;5.90;90.60;;;;;;5014204;28;20194;-90
2023/12/05 10:06:32;;;;;;;5.70;2.58;;;6.40;89.80;;;;;;5058159;28;20294;-91
2023/12/05 10:09:01;;;;;;;3.33;2.45;;;7.20;91.70;;;;;;5075056;28;20201;-90
2023/12/05 10:11:40;;;;;;;4.05;2.20;;;7.90;91.20;;;;;;5074244;28;20665;-90
2023/12/05 10:14:08;;;;;;;2.72;1.90;;;8.30;85.00;;;;;;5065196;28;20212;-91
2023/12/05 10:26:13;;;;;;;5.50;2.55;;;8.10;80.20;;;;;;5321811;22;20689;-90
2023/12/05 10:28:54;;;;;;;5.25;2.55;;;8.30;83.20;;;;;;5062509;28;20205;-91
2023/12/05 10:31:41;;;;;;;3.13;2.40;;;8.60;83.40;;;;;;5066231;28;20193;-90
2023/12/05 10:34:08;;;;;;;3.50;2.33;;;9.50;79.70;;;;;;5074963;28;20267;-90
2023/12/05 10:36:35;;;;;;;4.07;2.42;;;10.10;58.90;;;;;;5073238;28;20232;-91
2023/12/05 10:39:03;;;;;;;4.80;2.40;;;10.20;53.30;;;;;;5073551;28;20201;-90
2023/12/05 10:41:30;;;;;;;3.53;2.22;;;9.60;53.70;;;;;;5046901;28;20254;-91
2023/12/05 10:44:06;;;;;;;4.35;2.20;;;9.40;56.80;;;;;;5044731;28;20197;-90
2023/12/05 10:46:57;;;;;;;3.53;2.30;;;8.90;60.70;;;;;;5063641;28;20244;-91
2023/12/05 10:56:16;;;;;;;2.80;2.35;;;7.90;72.70;;;;;;5063153;28;20594;-90
2023/12/05 11:04:09;;;;;;;3.38;2.10;;;7.10;79.80;;;;;;5076905;28;20193;-91
2023/12/05 11:09:35;;;;;;;3.03;2.40;;;6.60;88.90;;;;;;5070511;28;20266;-90
2023/12/05 11:12:25;;;;;;;2.97;2.40;;;6.70;90.00;;;;;;5073950;28;20211;-90
2023/12/05 11:14:56;;;;;;;5.22;2.35;;;6.50;89.90;;;;;;5052929;28;20205;-91
2023/12/05 11:17:29;;;;;;;2.42;2.08;;;6.40;89.90;;;;;;5073857;28;20195;-90
2023/12/05 11:20:14;;;;;;;3.03;2.22;;;6.40;90.30;;;;;;5056598;28;20201;-90
2023/12/05 11:25:47;;;;;;;6.57;2.75;;;6.00;91.30;;;;;;4994165;28;20254;-94
2023/12/05 11:41:11;;;;;;;3.97;2.70;;;5.30;95.10;;;;;;4993744;28;20209;-90
2023/12/05 11:44:15;;;;;;;3.10;2.67;;;5.40;95.20;;;;;;4976988;28;20206;-91
2023/12/05 11:54:18;;;;;;;3.80;2.70;;;6.00;94.40;;;;;;5052084;28;20182;-91
2023/12/05 12:04:35;;;;;;;4.38;2.65;;;7.10;92.10;;;;;;5074793;28;20192;-91
2023/12/05 12:16:41;;;;;;;3.88;3.33;;;7.70;90.20;;;;;;6082320;22;20196;-94
2023/12/05 13:38:07;;;;;;;4.83;3.47;;;4.80;97.60;;;;;;5291752;22;20235;-93
2023/12/05 13:40:34;;;;;;;6.13;3.67;;;4.80;97.80;;;;;;5079816;28;20197;-93
2023/12/05 13:43:01;;;;;;;5.20;3.90;;;4.80;97.90;;;;;;5043414;28;20247;-93
2023/12/05 13:46:14;;;;;;;9.43;4.10;;;4.70;98.00;;;;;;5059250;28;20193;-93
2023/12/05 13:48:42;;;;;;;5.73;4.00;;;4.70;98.20;;;;;;5077217;28;20561;-92
2023/12/05 13:51:09;;;;;;;5.87;4.23;;;4.50;98.30;;;;;;5076924;28;20255;-93
2023/12/05 13:54:10;;;;;;;5.67;3.97;;;4.50;98.70;;;;;;5042654;28;20182;-92
2023/12/05 13:59:48;;;;;;;8.90;4.17;;;4.50;99.00;;;;;;5076562;28;20280;-92
2023/12/05 14:02:15;;;;;;;6.65;4.43;;;4.50;98.90;;;;;;5076316;28;20250;-92
2023/12/05 14:04:42;;;;;;;9.63;4.63;;;4.50;98.90;;;;;;5071647;28;20224;-92
2023/12/05 14:07:09;;;;;;;6.93;4.43;;;4.50;99.00;;;;;;5067944;28;20202;-92
2023/12/05 14:09:37;;;;;;;5.13;3.90;;;4.50;99.30;;;;;;5038853;28;20209;-93
2023/12/05 14:12:11;;;;;;;16.27;4.53;;;4.50;99.30;;;;;;5056400;28;20197;-92
2023/12/05 14:14:39;;;;;;;6.57;3.80;;;4.70;98.40;;;;;;5083443;28;20201;-93
2023/12/05 14:17:05;;;;;;;9.47;4.30;;;4.60;98.30;;;;;;5090072;28;20225;-95
2023/12/05 14:19:32;;;;;;;7.73;4.10;;;4.50;98.50;;;;;;5078559;28;20209;-92
2023/12/05 14:21:59;;;;;;;7.73;4.87;;;4.40;98.90;;;;;;5075996;28;20220;-92
2023/12/05 14:24:26;;;;;;;7.37;4.40;;;4.40;99.20;;;;;;5071370;28;20198;-93
2023/12/05 14:26:54;;;;;;;12.33;4.53;;;4.40;99.20;;;;;;5047424;28;20267;-92
2023/12/05 14:29:22;;;;;;;7.13;4.10;;;4.40;99.20;;;;;;5066682;28;20212;-90
2023/12/05 14:31:49;;;;;;;8.60;4.93;;;4.20;99.30;;;;;;5070754;28;20205;-90
2023/12/05 14:34:16;;;;;;;11.57;5.77;;;4.20;99.60;;;;;;5075295;28;20212;-91
2023/12/05 14:36:43;;;;;;;6.93;4.63;;;4.10;99.90;;;;;;5075830;28;20232;-90
2023/12/05 14:39:10;;;;;;;6.20;4.77;;;4.10;99.90;;;;;;5076227;28;20189;-90
2023/12/05 14:41:36;;;;;;;8.07;4.67;;;4.10;99.90;;;;;;5073364;28;20197;-93
2023/12/05 14:44:05;;;;;;;10.57;4.97;;;4.10;99.90;;;;;;5053854;28;20201;-92
2023/12/05 14:46:33;;;;;;;15.10;5.13;;;3.90;99.90;;;;;;5071901;28;20392;-92
2023/12/05 14:49:00;;;;;;;11.47;4.43;;;3.80;99.90;;;;;;5064782;28;20199;-93
2023/12/05 14:51:27;;;;;;;9.87;4.40;;;3.70;99.90;;;;;;5077025;28;20200;-94
2023/12/05 14:53:54;;;;;;;8.63;4.33;;;3.70;99.90;;;;;;5035944;28;20203;-94
2023/12/05 14:56:21;;;;;;;10.53;4.30;;;3.70;99.90;;;;;;5050452;28;20701;-92
2023/12/05 14:58:48;;;;;;;9.47;4.00;;;3.80;99.90;;;;;;5075476;28;20265;-92
2023/12/05 15:01:16;;;;;;;6.73;4.30;;;3.90;99.90;;;;;;5078419;28;20203;-94
2023/12/05 15:03:43;;;;;;;9.03;4.03;;;3.80;99.90;;;;;;5066965;28;20855;-94
2023/12/05 15:06:13;;;;;;;8.40;4.00;;;3.90;99.90;;;;;;5244231;23;20244;-94
2023/12/05 15:08:40;;;;;;;10.20;4.83;;;3.90;99.90;;;;;;5054552;28;20181;-93
2023/12/05 15:11:07;;;;;;;10.53;4.20;;;3.90;99.90;;;;;;5060973;28;20224;-94
2023/12/05 15:13:34;;;;;;;9.73;4.90;;;4.00;99.90;;;;;;5062688;28;20242;-93
2023/12/05 15:18:43;;;;;;;12.17;5.47;;;4.00;99.90;;;;;;5048861;28;20214;-94
2023/12/05 15:21:11;;;;;;;7.50;4.50;;;3.90;99.90;;;;;;5057803;28;20237;-94
2023/12/05 15:23:58;;;;;;;12.40;4.80;;;3.80;99.90;;;;;;5040015;28;20209;-93
2023/12/05 15:26:26;;;;;;;8.93;4.50;;;3.80;99.90;;;;;;5043440;28;20261;-93
2023/12/05 15:28:53;;;;;;;13.70;4.80;;;3.90;99.90;;;;;;5046022;28;20199;-94
2023/12/05 15:31:31;;;;;;;8.50;4.43;;;3.70;99.90;;;;;;5058790;28;20192;-94
2023/12/05 15:33:59;;;;;;;9.03;4.23;;;3.50;99.90;;;;;;5056008;28;20208;-94
2023/12/05 15:36:26;;;;;;;8.27;3.77;;;3.40;99.90;;;;;;5242480;22;20217;-94
2023/12/05 15:38:53;;;;;;;7.67;4.47;;;3.30;99.90;;;;;;5510848;22;20205;-93
2023/12/05 15:59:23;;;;;;;10.50;5.07;;;3.30;99.90;;;;;;5066179;28;20205;-95
2023/12/05 16:02:10;;;;;;;11.63;4.87;;;3.40;99.90;;;;;;5060744;28;20198;-94
2023/12/05 16:09:47;;;;;;;7.90;4.43;;;3.50;99.90;;;;;;5384670;22;20228;-95
2023/12/05 16:12:59;;;;;;;9.97;4.50;;;3.50;99.90;;;;;;5075545;28;20189;-96
2023/12/05 16:15:28;;;;;;;11.07;4.87;;;3.50;99.90;;;;;;5072347;28;21103;-92
2023/12/05 16:17:55;;;;;;;10.67;4.60;;;3.40;99.90;;;;;;5075269;28;20257;-92
2023/12/05 16:20:22;;;;;;;6.47;4.37;;;3.20;99.90;;;;;;5042954;28;20196;-91
2023/12/05 16:22:50;;;;;;;6.83;4.20;;;3.20;99.90;;;;;;5062098;28;20228;-91
2023/12/05 16:25:17;;;;;;;8.27;4.00;;;3.10;99.90;;;;;;5074655;28;20208;-93
2023/12/05 16:27:44;;;;;;;6.17;4.20;;;3.00;99.90;;;;;;5068357;28;20213;-90
2023/12/05 16:30:12;;;;;;;6.60;3.90;;;3.10;99.90;;;;;;5057949;28;20198;-90
2023/12/05 16:32:41;;;;;;;8.13;3.70;;;3.10;99.90;;;;;;5075722;28;20189;-91
2023/12/05 16:38:35;;;;;;;8.27;5.20;;;3.10;99.90;;;;;;5064052;28;20193;-92
2023/12/05 16:41:02;;;;;;;8.17;4.93;;;3.10;99.90;;;;;;5071385;28;20200;-90
2023/12/05 16:43:29;;;;;;;11.50;5.43;;;3.10;99.90;;;;;;5071894;28;20680;-94
2023/12/05 16:45:56;;;;;;;6.30;4.20;;;3.00;99.90;;;;;;5073386;28;20203;-92
2023/12/05 16:48:24;;;;;;;7.13;4.50;;;3.00;99.90;;;;;;5047736;28;20193;-93
2023/12/05 16:50:54;;;;;;;7.27;4.40;;;3.00;99.90;;;;;;5067846;28;20220;-92
2023/12/05 16:53:21;;;;;;;10.33;4.80;;;3.00;99.90;;;;;;5051072;28;20201;-93
2023/12/05 16:55:47;;;;;;;8.97;4.20;;;2.90;99.90;;;;;;5074256;28;20239;-94
2023/12/05 16:58:18;;;;;;;8.77;4.47;;;2.90;99.90;;;;;;5045651;28;20219;-92
2023/12/05 17:00:46;;;;;;;9.43;3.77;;;3.00;99.90;;;;;;5059900;28;20205;-93
2023/12/05 17:03:13;;;;;;;8.73;4.90;;;2.90;99.90;;;;;;5077927;28;20197;-93
2023/12/05 17:08:22;;;;;;;8.47;4.50;;;2.80;99.90;;;;;;5069871;28;20197;-93
2023/12/05 17:10:49;;;;;;;9.10;4.27;;;2.80;99.90;;;;;;5084457;28;20193;-95
2023/12/05 17:13:16;;;;;;;8.70;4.13;;;2.70;99.90;;;;;;5085473;28;20268;-93